Time;durP1;ratioP1;P1;durP2;ratioP2;P2;SDS_P1;SDS_P2;PMS_P1;PMS_P2;Temp;Humidity;BMP_temperature;BMP_pressure;BME280_temperature;BME280_humidity;BME280_pressure;Samples;Min_cycle;Max_cycle;Signal;HPM_P1;HPM_P2
2023/06/01 00:00:27;;;;;;;5.30;3.10;;;;;;;10.42;87.95;95847.34;106567;1276;24813;-70
2023/06/01 00:03:15;;;;;;;5.90;2.90;;;;;;;10.48;87.36;95846.58;106552;1276;22524;-70
2023/06/01 00:05:43;;;;;;;4.40;2.90;;;;;;;10.42;87.29;95845.05;106577;1276;24301;-70
2023/06/01 00:08:12;;;;;;;4.90;3.10;;;;;;;10.42;87.26;95845.58;106570;1276;24248;-70
2023/06/01 00:10:39;;;;;;;5.40;3.40;;;;;;;10.46;87.44;95841.31;106556;1276;25380;-70
2023/06/01 00:13:08;;;;;;;5.20;2.90;;;;;;;10.48;87.50;95842.52;106571;1276;22629;-70
2023/06/01 00:15:36;;;;;;;5.30;3.00;;;;;;;10.47;87.45;95848.67;106563;1276;24348;-69
2023/06/01 00:18:05;;;;;;;7.40;3.60;;;;;;;10.54;87.72;95841.19;106569;1276;23869;-70
2023/06/01 00:20:34;;;;;;;6.90;3.30;;;;;;;10.55;86.87;95839.59;106548;1276;22640;-70
2023/06/01 00:23:02;;;;;;;4.70;3.00;;;;;;;10.52;86.65;95837.18;106565;1276;22511;-70
2023/06/01 00:25:31;;;;;;;4.50;2.70;;;;;;;10.46;86.30;95836.73;106591;1266;22511;-70
2023/06/01 00:28:02;;;;;;;5.60;3.20;;;;;;;10.47;86.62;95836.04;106564;1276;22660;-70
2023/06/01 00:30:30;;;;;;;4.60;3.30;;;;;;;10.42;86.21;95839.25;106614;1276;22517;-70
2023/06/01 00:32:58;;;;;;;4.30;2.80;;;;;;;10.33;85.66;95843.44;106552;1276;22506;-70
2023/06/01 00:35:27;;;;;;;4.60;3.40;;;;;;;10.24;85.69;95839.84;106699;1276;22561;-69
2023/06/01 00:37:55;;;;;;;7.80;3.20;;;;;;;10.18;85.95;95838.67;106579;1276;22536;-69
2023/06/01 00:40:23;;;;;;;5.30;3.30;;;;;;;10.18;86.30;95835.67;106565;1276;24232;-70
2023/06/01 00:42:51;;;;;;;5.10;3.20;;;;;;;10.21;86.69;95838.10;106534;1276;22521;-70
2023/06/01 00:45:19;;;;;;;5.90;3.50;;;;;;;10.19;86.85;95837.94;106590;1276;25383;-70
2023/06/01 00:47:47;;;;;;;5.80;3.80;;;;;;;10.17;87.22;95839.73;106590;1276;24196;-70
2023/06/01 00:50:15;;;;;;;4.40;3.00;;;;;;;10.16;87.51;95837.98;106631;1276;22618;-70
2023/06/01 00:52:46;;;;;;;7.30;3.80;;;;;;;10.10;87.88;95839.29;106691;1276;25354;-70
2023/06/01 00:55:14;;;;;;;4.20;3.10;;;;;;;10.05;87.80;95837.79;106620;1276;22772;-70
2023/06/01 00:57:43;;;;;;;5.50;3.20;;;;;;;9.98;87.91;95838.58;106629;1276;25377;-70
2023/06/01 01:00:12;;;;;;;4.20;3.10;;;;;;;9.94;88.03;95842.33;106636;1276;22507;-70
2023/06/01 01:02:44;;;;;;;4.80;3.10;;;;;;;9.87;87.29;95843.45;106944;1266;22514;-70
2023/06/01 01:05:12;;;;;;;5.70;3.40;;;;;;;9.83;87.18;95842.80;106665;1276;24239;-70
2023/06/01 01:07:41;;;;;;;4.60;3.40;;;;;;;9.85;87.15;95839.61;106588;1276;22592;-70
2023/06/01 01:10:38;;;;;;;4.00;3.20;;;;;;;9.84;87.20;95840.66;106585;1276;23139;-70
2023/06/01 01:13:07;;;;;;;6.40;3.50;;;;;;;9.84;87.80;95842.09;106647;1276;25587;-69
2023/06/01 01:15:54;;;;;;;8.40;5.10;;;;;;;9.87;88.28;95844.16;106586;1276;22533;-70
2023/06/01 01:18:32;;;;;;;5.20;3.30;;;;;;;9.87;87.64;95846.61;106890;1276;24261;-69
2023/06/01 01:21:03;;;;;;;7.50;3.10;;;;;;;9.85;87.56;95847.16;106624;1276;22517;-69
2023/06/01 01:23:34;;;;;;;6.10;3.20;;;;;;;9.86;88.17;95845.40;106274;1276;25465;-70
2023/06/01 01:26:14;;;;;;;5.30;3.30;;;;;;;9.87;87.62;95842.05;106575;1276;24321;-69
2023/06/01 01:29:01;;;;;;;4.70;3.60;;;;;;;9.84;87.81;95842.43;106613;1276;24371;-70
2023/06/01 01:31:31;;;;;;;7.10;3.20;;;;;;;9.87;87.99;95840.30;106606;1276;24302;-70
2023/06/01 01:34:01;;;;;;;8.00;3.40;;;;;;;9.85;88.09;95837.86;106629;1276;22579;-70
2023/06/01 01:36:31;;;;;;;7.40;3.50;;;;;;;9.87;88.10;95840.48;106598;1276;22602;-70
2023/06/01 01:38:59;;;;;;;5.70;2.90;;;;;;;9.85;88.36;95840.84;106612;1276;22526;-70
2023/06/01 01:41:28;;;;;;;5.60;2.90;;;;;;;9.86;88.39;95840.13;106548;1276;22544;-70
2023/06/01 01:43:59;;;;;;;3.80;2.90;;;;;;;9.89;88.10;95842.02;106556;1276;26568;-70
2023/06/01 01:46:36;;;;;;;5.70;3.00;;;;;;;9.89;88.31;95840.26;106589;1276;22514;-70
2023/06/01 01:49:28;;;;;;;5.60;3.40;;;;;;;9.92;88.28;95841.80;106584;1276;22536;-70
2023/06/01 01:52:29;;;;;;;6.50;3.20;;;;;;;9.88;87.62;95839.23;106585;1276;24292;-69
2023/06/01 01:54:58;;;;;;;6.00;3.50;;;;;;;9.87;87.79;95840.27;106768;1276;24278;-69
2023/06/01 01:57:29;;;;;;;4.20;3.00;;;;;;;9.85;87.20;95839.61;106605;1276;24280;-70
2023/06/01 01:59:58;;;;;;;8.80;4.00;;;;;;;9.75;87.00;95839.89;106588;1276;22636;-70
2023/06/01 02:02:27;;;;;;;6.00;3.60;;;;;;;9.66;87.14;95836.66;106617;1275;24653;-70
2023/06/01 02:04:55;;;;;;;5.70;3.30;;;;;;;9.61;88.22;95840.60;106637;1264;24401;-70
2023/06/01 02:07:23;;;;;;;9.00;4.10;;;;;;;9.63;88.20;95837.92;106612;1276;24196;-70
2023/06/01 02:09:52;;;;;;;4.30;3.10;;;;;;;9.65;87.77;95838.61;106909;1276;22518;-71
2023/06/01 02:12:20;;;;;;;13.20;3.40;;;;;;;9.63;87.41;95841.63;106609;1276;25427;-70
2023/06/01 02:14:48;;;;;;;4.70;3.00;;;;;;;9.56;87.30;95839.77;106613;1276;25961;-70
2023/06/01 02:17:16;;;;;;;4.30;2.90;;;;;;;9.53;87.82;95841.89;106601;1276;25258;-70
2023/06/01 02:19:44;;;;;;;9.60;3.60;;;;;;;9.54;87.76;95840.11;106583;1276;22596;-70
2023/06/01 02:22:13;;;;;;;6.30;3.50;;;;;;;9.63;88.40;95842.33;106602;1276;22943;-70
2023/06/01 02:24:41;;;;;;;7.50;3.50;;;;;;;9.72;88.31;95844.14;106922;1276;25240;-70
2023/06/01 02:27:09;;;;;;;5.80;3.30;;;;;;;9.73;87.64;95840.45;106870;1276;25302;-70
2023/06/01 02:29:37;;;;;;;4.90;3.40;;;;;;;9.68;86.96;95837.52;106578;1276;22598;-70
2023/06/01 02:32:06;;;;;;;4.50;3.50;;;;;;;9.62;86.75;95838.83;106571;1276;22616;-70
2023/06/01 02:34:36;;;;;;;6.30;3.40;;;;;;;9.52;87.42;95838.75;106348;1276;25403;-70
2023/06/01 02:37:06;;;;;;;6.10;3.50;;;;;;;9.44;87.80;95840.94;106582;1276;23884;-70
2023/06/01 02:39:34;;;;;;;5.90;3.60;;;;;;;9.42;87.94;95840.42;106610;1276;22817;-70
2023/06/01 02:42:03;;;;;;;5.30;3.40;;;;;;;9.38;87.80;95837.84;106602;1276;24385;-70
2023/06/01 02:44:31;;;;;;;6.20;3.60;;;;;;;9.37;87.97;95835.39;106544;1276;25427;-70
2023/06/01 02:46:59;;;;;;;6.40;4.20;;;;;;;9.36;87.95;95837.69;106595;1276;24186;-70
2023/06/01 02:49:27;;;;;;;6.30;3.70;;;;;;;9.34;88.16;95838.94;106580;1276;25262;-70
2023/06/01 02:51:56;;;;;;;6.60;3.30;;;;;;;9.29;88.61;95837.23;106567;1269;23245;-70
2023/06/01 02:54:25;;;;;;;4.70;3.30;;;;;;;9.24;88.00;95839.21;106648;1276;22530;-70
2023/06/01 02:56:53;;;;;;;6.30;3.50;;;;;;;9.19;87.86;95838.38;106621;1276;24330;-70
2023/06/01 02:59:25;;;;;;;7.30;3.80;;;;;;;9.12;87.66;95844.39;106560;1269;22652;-70
2023/06/01 03:01:57;;;;;;;5.00;3.40;;;;;;;9.09;88.38;95846.17;106618;1276;22521;-71
2023/06/01 03:04:28;;;;;;;7.40;3.20;;;;;;;9.15;88.35;95847.89;106571;1276;24244;-70
2023/06/01 03:06:58;;;;;;;8.80;3.00;;;;;;;9.17;88.33;95848.05;106454;1276;24228;-70
2023/06/01 03:09:32;;;;;;;6.50;3.10;;;;;;;9.15;87.89;95854.38;106562;1276;24335;-70
2023/06/01 03:12:11;;;;;;;4.50;3.20;;;;;;;9.16;88.41;95851.57;106599;1276;24256;-70
2023/06/01 03:14:40;;;;;;;5.10;3.40;;;;;;;9.17;89.31;95846.29;106733;1276;24244;-70
2023/06/01 03:17:08;;;;;;;6.20;3.70;;;;;;;9.19;89.56;95847.52;106692;1276;24028;-70
2023/06/01 03:19:36;;;;;;;6.30;3.50;;;;;;;9.26;89.62;95841.29;106345;1276;22898;-70
2023/06/01 03:22:12;;;;;;;9.60;4.00;;;;;;;9.38;88.80;95840.82;106565;1276;22613;-70
2023/06/01 03:24:41;;;;;;;5.90;4.20;;;;;;;9.38;87.94;95840.47;106578;1276;22526;-71
2023/06/01 03:27:13;;;;;;;9.10;4.40;;;;;;;9.32;87.66;95839.64;106637;1276;22517;-70
2023/06/01 03:29:41;;;;;;;8.10;4.10;;;;;;;9.32;88.00;95844.92;106592;1276;24192;-70
2023/06/01 03:32:09;;;;;;;7.90;4.00;;;;;;;9.33;88.53;95844.55;106609;1276;23258;-70
2023/06/01 03:34:40;;;;;;;10.90;3.60;;;;;;;9.40;88.56;95840.29;106600;1276;22595;-70
2023/06/01 03:37:08;;;;;;;5.80;4.60;;;;;;;9.50;89.08;95840.86;106619;1276;22651;-71
2023/06/01 03:39:39;;;;;;;7.00;4.80;;;;;;;9.63;89.57;95841.61;106577;1276;22516;-71
2023/06/01 03:42:09;;;;;;;7.30;4.80;;;;;;;9.82;89.74;95838.23;106617;1276;22518;-71
2023/06/01 03:44:40;;;;;;;9.30;4.50;;;;;;;10.00;89.20;95840.31;106572;1276;24347;-70
2023/06/01 03:47:08;;;;;;;6.90;4.30;;;;;;;10.14;88.87;95835.38;106614;1276;22535;-70
2023/06/01 03:49:37;;;;;;;6.70;3.70;;;;;;;10.23;88.15;95834.58;106648;1276;22647;-71
2023/06/01 03:52:07;;;;;;;7.50;4.30;;;;;;;10.31;88.12;95830.98;106545;1276;26622;-70
2023/06/01 03:54:36;;;;;;;6.50;4.20;;;;;;;10.40;87.95;95828.38;106637;1276;24252;-70
2023/06/01 03:57:05;;;;;;;7.40;4.40;;;;;;;10.50;87.75;95826.48;106623;1276;24238;-71
2023/06/01 03:59:33;;;;;;;7.00;5.00;;;;;;;10.55;87.17;95824.65;106636;1276;24315;-71
2023/06/01 04:02:04;;;;;;;7.70;5.80;;;;;;;10.53;87.46;95820.63;106511;1276;25348;-70
2023/06/01 04:04:33;;;;;;;7.60;5.40;;;;;;;10.56;87.58;95821.11;106637;1276;22509;-71
2023/06/01 04:07:03;;;;;;;5.80;4.20;;;;;;;10.67;88.28;95825.16;106582;1276;22614;-70
2023/06/01 04:09:31;;;;;;;7.00;4.30;;;;;;;10.80;88.26;95826.20;106470;1276;25384;-71
2023/06/01 04:12:01;;;;;;;7.30;4.70;;;;;;;10.89;88.00;95827.11;106557;1276;23006;-70
2023/06/01 04:14:29;;;;;;;5.70;4.70;;;;;;;10.98;87.87;95826.09;106583;1276;22522;-70
2023/06/01 04:16:58;;;;;;;7.80;4.90;;;;;;;11.04;87.71;95827.41;106446;1276;24343;-71
2023/06/01 04:19:26;;;;;;;7.50;4.90;;;;;;;11.12;87.62;95825.15;106639;1276;25390;-71
2023/06/01 04:22:00;;;;;;;7.10;5.30;;;;;;;11.13;87.33;95823.03;106571;1276;22650;-70
2023/06/01 04:24:28;;;;;;;10.70;4.80;;;;;;;11.15;87.13;95823.70;106576;1276;25160;-71
2023/06/01 04:26:58;;;;;;;6.30;5.00;;;;;;;11.14;87.27;95818.09;106531;1276;22510;-70
2023/06/01 04:29:27;;;;;;;8.60;4.90;;;;;;;11.16;87.52;95815.23;106567;1273;22545;-70
2023/06/01 04:31:55;;;;;;;8.10;5.50;;;;;;;11.20;87.73;95811.80;106751;1276;25380;-70
2023/06/01 04:34:24;;;;;;;8.40;5.00;;;;;;;11.27;87.91;95812.57;106932;1276;22514;-71
2023/06/01 04:36:52;;;;;;;7.30;4.90;;;;;;;11.34;87.97;95809.45;106604;1276;22527;-71
2023/06/01 04:39:20;;;;;;;8.20;5.80;;;;;;;11.42;88.05;95808.94;106623;1276;25380;-71
2023/06/01 04:41:48;;;;;;;9.50;5.60;;;;;;;11.55;88.17;95809.59;106595;1276;25466;-71
2023/06/01 04:44:18;;;;;;;8.40;4.70;;;;;;;11.67;88.16;95809.88;106587;1276;22535;-70
2023/06/01 04:46:49;;;;;;;9.90;4.90;;;;;;;11.78;87.97;95809.15;106589;1276;24249;-70
2023/06/01 04:49:18;;;;;;;11.00;5.70;;;;;;;11.87;87.85;95808.45;106564;1276;22653;-71
2023/06/01 04:51:51;;;;;;;7.90;5.10;;;;;;;12.00;87.81;95810.84;106585;1276;22703;-70
2023/06/01 04:54:19;;;;;;;5.90;5.00;;;;;;;12.13;87.68;95810.92;106606;1276;24270;-70
2023/06/01 04:56:47;;;;;;;8.30;5.00;;;;;;;12.25;87.42;95809.27;106414;1276;22659;-70
2023/06/01 04:59:16;;;;;;;7.70;5.10;;;;;;;12.37;87.09;95808.48;106586;1276;24206;-71
2023/06/01 05:01:44;;;;;;;8.50;4.30;;;;;;;12.47;86.53;95809.66;106400;1276;22770;-70
2023/06/01 05:04:12;;;;;;;6.00;4.40;;;;;;;12.59;86.35;95804.28;106593;1276;22633;-71
2023/06/01 05:06:41;;;;;;;8.00;4.50;;;;;;;12.73;86.78;95803.05;106549;1276;22507;-70
2023/06/01 05:09:09;;;;;;;7.10;4.30;;;;;;;12.92;86.82;95800.14;106551;1276;22989;-71
2023/06/01 05:11:37;;;;;;;9.20;4.20;;;;;;;13.08;86.65;95793.54;106527;1276;24235;-70
2023/06/01 05:14:05;;;;;;;6.50;4.60;;;;;;;13.24;86.16;95790.68;106556;1276;22557;-71
2023/06/01 05:16:34;;;;;;;7.30;4.10;;;;;;;13.39;85.83;95787.65;106620;1276;24366;-71
2023/06/01 05:19:03;;;;;;;5.80;4.20;;;;;;;13.58;86.17;95785.58;106621;1276;22642;-71
2023/06/01 05:21:32;;;;;;;7.00;4.60;;;;;;;13.77;85.70;95784.52;106605;1276;25315;-71
2023/06/01 05:24:01;;;;;;;5.70;4.40;;;;;;;13.91;85.29;95785.00;106568;1276;22652;-71
2023/06/01 05:26:30;;;;;;;8.10;4.10;;;;;;;14.04;84.67;95782.34;106124;1266;635811;-70
2023/06/01 05:28:58;;;;;;;7.20;4.00;;;;;;;14.20;85.02;95780.43;106638;1276;25587;-70
2023/06/01 05:31:27;;;;;;;7.10;4.80;;;;;;;14.41;85.01;95776.61;106553;1276;22660;-70
2023/06/01 05:33:57;;;;;;;6.90;4.50;;;;;;;14.60;84.38;95781.73;106630;1276;22591;-70
2023/06/01 05:36:28;;;;;;;6.80;4.60;;;;;;;14.73;83.67;95775.84;106570;1276;25150;-71
2023/06/01 05:38:57;;;;;;;6.50;4.60;;;;;;;14.83;83.24;95773.02;106609;1276;22748;-70
2023/06/01 05:41:25;;;;;;;6.20;4.60;;;;;;;14.94;82.59;95772.66;106603;1276;25148;-70
2023/06/01 05:43:54;;;;;;;8.30;4.80;;;;;;;15.03;82.11;95772.91;106656;1276;22520;-68
2023/06/01 05:46:24;;;;;;;7.10;4.80;;;;;;;15.11;81.65;95769.83;106584;1276;24269;-68
2023/06/01 05:48:55;;;;;;;5.70;4.70;;;;;;;15.18;81.48;95772.77;106637;1276;22646;-70
2023/06/01 05:51:24;;;;;;;7.90;5.20;;;;;;;15.29;80.89;95768.86;106644;1276;22639;-70
2023/06/01 05:53:52;;;;;;;6.10;4.90;;;;;;;15.37;79.87;95766.42;106582;1276;24240;-70
2023/06/01 05:56:21;;;;;;;6.60;4.80;;;;;;;15.43;78.46;95770.69;106604;1276;22640;-69
2023/06/01 05:58:52;;;;;;;6.80;4.30;;;;;;;15.44;78.39;95774.01;106505;1276;24240;-70
2023/06/01 06:01:24;;;;;;;7.60;4.90;;;;;;;15.51;78.61;95770.55;106621;1276;22521;-70
2023/06/01 06:03:53;;;;;;;7.40;5.00;;;;;;;15.61;78.63;95771.45;106593;1276;22643;-70
2023/06/01 06:06:22;;;;;;;8.70;4.60;;;;;;;15.74;78.41;95772.42;106551;1276;24205;-70
2023/06/01 06:08:52;;;;;;;10.40;8.40;;;;;;;15.84;76.87;95774.92;106555;1276;24353;-70
2023/06/01 06:11:21;;;;;;;6.70;4.90;;;;;;;15.94;76.78;95771.89;106565;1276;24327;-71
2023/06/01 06:13:50;;;;;;;5.90;4.30;;;;;;;16.07;77.03;95776.55;106564;1276;24196;-70
2023/06/01 06:16:18;;;;;;;5.50;4.20;;;;;;;16.21;77.29;95776.21;106582;1276;22643;-70
2023/06/01 06:18:46;;;;;;;5.90;4.10;;;;;;;16.35;77.47;95774.25;106587;1276;22648;-70
2023/06/01 06:21:14;;;;;;;5.40;4.60;;;;;;;16.50;76.84;95772.09;106558;1276;22644;-70
2023/06/01 06:23:47;;;;;;;6.20;4.50;;;;;;;16.63;75.05;95772.65;106560;1276;23881;-70
2023/06/01 06:26:16;;;;;;;4.30;3.50;;;;;;;16.76;75.47;95766.64;106626;1273;25353;-70
2023/06/01 06:28:44;;;;;;;7.10;3.90;;;;;;;16.92;74.40;95764.06;106587;1276;25370;-71
2023/06/01 06:31:12;;;;;;;6.60;4.00;;;;;;;17.02;74.76;95763.45;106632;1276;22504;-71
2023/06/01 06:33:40;;;;;;;8.50;4.10;;;;;;;17.17;73.67;95761.41;106546;1276;22615;-70
2023/06/01 06:36:08;;;;;;;7.00;4.00;;;;;;;17.28;72.94;95758.48;106537;1276;22511;-71
2023/06/01 06:38:37;;;;;;;4.90;3.70;;;;;;;17.41;72.72;95757.74;106537;1276;22578;-71
2023/06/01 06:41:05;;;;;;;6.00;3.80;;;;;;;17.52;71.88;95759.72;106550;1276;22527;-70
2023/06/01 06:43:36;;;;;;;9.40;4.00;;;;;;;17.63;71.89;95760.33;106521;1276;25449;-70
2023/06/01 06:46:04;;;;;;;5.30;4.30;;;;;;;17.72;70.63;95755.87;106541;1276;24205;-71
2023/06/01 06:48:32;;;;;;;6.80;4.10;;;;;;;17.84;70.25;95759.46;106574;1276;22532;-71
2023/06/01 06:51:02;;;;;;;7.00;4.70;;;;;;;17.94;70.41;95753.64;106586;1276;22579;-71
2023/06/01 06:53:31;;;;;;;8.30;4.30;;;;;;;18.03;68.39;95748.27;106616;1276;23867;-70
2023/06/01 06:55:59;;;;;;;4.90;4.40;;;;;;;18.05;68.39;95750.84;106419;1276;24373;-71
2023/06/01 06:58:27;;;;;;;6.70;4.00;;;;;;;18.12;68.44;95750.72;106654;1276;22542;-70
2023/06/01 07:00:56;;;;;;;6.80;4.10;;;;;;;18.28;69.47;95746.42;106584;1276;22542;-71
2023/06/01 07:03:24;;;;;;;5.80;4.20;;;;;;;18.46;69.84;95747.54;106600;1276;23909;-70
2023/06/01 07:05:52;;;;;;;5.10;4.00;;;;;;;18.63;69.62;95746.58;106645;1276;24428;-70
2023/06/01 07:08:20;;;;;;;7.50;4.30;;;;;;;18.79;68.29;95746.33;106561;1276;22647;-70
2023/06/01 07:10:49;;;;;;;7.00;4.50;;;;;;;18.95;68.43;95745.75;106523;1276;25332;-71
2023/06/01 07:13:17;;;;;;;6.20;3.90;;;;;;;19.09;68.31;95743.64;106546;1276;24266;-70
2023/06/01 07:15:46;;;;;;;6.20;4.50;;;;;;;19.21;66.84;95746.08;106539;1276;22777;-70
2023/06/01 07:18:14;;;;;;;6.10;4.40;;;;;;;19.33;66.89;95745.63;106579;1276;22542;-70
2023/06/01 07:20:42;;;;;;;4.80;3.80;;;;;;;19.47;66.74;95745.84;106683;1276;22550;-70
2023/06/01 07:23:12;;;;;;;5.90;3.80;;;;;;;19.59;66.14;95745.41;106528;1276;24201;-70
2023/06/01 07:25:40;;;;;;;6.10;4.40;;;;;;;19.64;64.26;95741.54;106572;1276;25217;-71
2023/06/01 07:28:08;;;;;;;4.50;3.70;;;;;;;19.70;63.60;95736.98;106571;1276;22525;-70
2023/06/01 07:30:36;;;;;;;5.10;3.90;;;;;;;19.78;62.33;95736.56;106580;1270;24350;-70
2023/06/01 07:33:04;;;;;;;7.10;3.90;;;;;;;19.88;63.29;95735.67;106545;1276;22632;-69
2023/06/01 07:35:33;;;;;;;5.10;4.00;;;;;;;19.98;62.48;95733.74;106558;1276;22539;-70
2023/06/01 07:38:03;;;;;;;5.10;3.20;;;;;;;20.09;62.18;95730.84;106585;1276;25348;-70
2023/06/01 07:40:31;;;;;;;4.70;4.20;;;;;;;20.18;61.44;95730.72;106597;1276;22475;-68
2023/06/01 07:42:59;;;;;;;6.10;3.80;;;;;;;20.28;61.55;95730.32;106372;1276;22530;-68
2023/06/01 07:45:28;;;;;;;5.40;3.70;;;;;;;20.33;59.15;95725.23;106551;1276;24214;-68
2023/06/01 07:47:56;;;;;;;5.60;4.10;;;;;;;20.41;60.15;95729.40;106575;1276;22649;-68
2023/06/01 07:50:28;;;;;;;7.10;4.10;;;;;;;20.54;60.29;95723.20;106622;1276;26576;-68
2023/06/01 07:52:57;;;;;;;5.30;3.90;;;;;;;20.67;59.56;95720.88;106594;1276;25406;-68
2023/06/01 07:55:25;;;;;;;8.10;3.80;;;;;;;20.76;58.49;95715.73;106541;1276;25468;-68
2023/06/01 07:57:53;;;;;;;5.10;3.90;;;;;;;20.86;60.02;95720.66;106542;1276;24269;-68
2023/06/01 08:00:22;;;;;;;5.20;4.10;;;;;;;20.99;60.13;95717.05;106580;1276;23208;-68
2023/06/01 08:02:50;;;;;;;6.70;4.20;;;;;;;21.08;59.40;95713.52;106614;1276;22509;-68
2023/06/01 08:05:19;;;;;;;6.80;4.00;;;;;;;21.11;59.76;95707.58;106635;1276;22510;-69
2023/06/01 08:07:48;;;;;;;5.60;4.30;;;;;;;21.17;58.69;95707.44;106567;1276;22514;-69
2023/06/01 08:10:17;;;;;;;5.80;4.40;;;;;;;21.29;59.41;95704.21;106598;1276;24202;-69
2023/06/01 08:12:47;;;;;;;4.70;3.80;;;;;;;21.43;59.62;95705.05;106582;1276;24254;-68
2023/06/01 08:15:16;;;;;;;6.50;4.00;;;;;;;21.53;58.57;95702.81;106612;1276;22775;-68
2023/06/01 08:17:44;;;;;;;4.80;4.20;;;;;;;21.60;58.96;95700.45;106573;1276;24254;-68
2023/06/01 08:20:13;;;;;;;6.20;4.00;;;;;;;21.72;59.51;95696.89;106660;1276;23880;-69
2023/06/01 08:22:41;;;;;;;6.10;4.40;;;;;;;21.81;59.35;95697.18;106601;1276;25627;-68
2023/06/01 08:25:09;;;;;;;8.20;3.90;;;;;;;21.93;59.21;95697.19;106621;1276;22529;-69
2023/06/01 08:27:38;;;;;;;7.10;4.10;;;;;;;22.02;57.67;95695.36;106534;1276;22519;-68
2023/06/01 08:30:07;;;;;;;8.10;4.50;;;;;;;22.14;58.03;95694.29;106609;1276;25383;-68
2023/06/01 08:32:35;;;;;;;5.10;4.30;;;;;;;22.23;57.66;95693.92;106621;1276;25370;-69
2023/06/01 08:35:06;;;;;;;5.30;4.00;;;;;;;22.30;56.55;95692.25;106506;1276;24262;-70
2023/06/01 08:37:35;;;;;;;6.30;4.30;;;;;;;22.35;56.27;95691.70;106633;1276;22636;-70
2023/06/01 08:40:09;;;;;;;5.90;4.20;;;;;;;22.40;54.82;95683.84;106659;1276;22536;-70
2023/06/01 08:43:12;;;;;;;5.90;4.30;;;;;;;22.45;54.60;95686.38;106574;1276;23281;-70
2023/06/01 08:45:41;;;;;;;4.40;4.00;;;;;;;22.48;54.23;95682.08;106635;1276;22649;-71
2023/06/01 08:48:14;;;;;;;6.10;4.30;;;;;;;22.52;52.89;95682.96;106636;1276;24325;-71
2023/06/01 08:50:46;;;;;;;10.20;4.20;;;;;;;22.57;53.33;95681.88;106607;1276;27042;-69
2023/06/01 08:53:18;;;;;;;5.80;3.80;;;;;;;22.59;51.42;95678.48;106579;1276;24349;-70
2023/06/01 08:55:50;;;;;;;6.50;4.40;;;;;;;22.69;53.37;95676.75;106627;1276;22506;-70
2023/06/01 08:58:18;;;;;;;6.30;4.00;;;;;;;22.86;53.47;95669.36;106568;1276;22502;-70
2023/06/01 09:00:51;;;;;;;4.50;3.90;;;;;;;22.90;52.19;95666.23;106539;1276;24172;-71
2023/06/01 09:03:20;;;;;;;5.90;3.70;;;;;;;22.95;51.28;95661.50;106601;1276;24513;-70
2023/06/01 09:05:48;;;;;;;5.70;4.20;;;;;;;23.06;50.84;95662.67;106634;1276;22536;-71
2023/06/01 09:08:16;;;;;;;4.20;3.80;;;;;;;23.18;51.51;95663.16;106580;1276;25476;-71
2023/06/01 09:10:45;;;;;;;5.90;3.80;;;;;;;23.32;51.40;95662.77;106635;1276;25386;-70
2023/06/01 09:13:30;;;;;;;5.30;3.70;;;;;;;23.36;49.57;95659.79;106569;1276;22513;-71
2023/06/01 09:15:59;;;;;;;5.40;4.00;;;;;;;23.38;50.08;95660.23;106667;1276;25414;-70
2023/06/01 09:18:27;;;;;;;7.50;4.30;;;;;;;23.47;49.73;95660.15;106576;1273;22520;-70
2023/06/01 09:21:09;;;;;;;6.60;4.20;;;;;;;23.55;50.71;95659.36;106576;1276;25265;-70
2023/06/01 09:23:38;;;;;;;5.70;4.20;;;;;;;23.71;49.36;95657.08;106588;1276;22525;-70
2023/06/01 09:26:08;;;;;;;7.00;3.90;;;;;;;23.79;49.00;95660.81;106608;1276;24669;-70
2023/06/01 09:28:59;;;;;;;4.90;3.80;;;;;;;23.81;47.65;95657.60;106618;1276;24241;-70
2023/06/01 09:31:41;;;;;;;4.50;3.80;;;;;;;23.87;48.90;95655.74;106633;1276;22648;-70
2023/06/01 09:34:12;;;;;;;5.60;3.80;;;;;;;23.95;48.77;95652.83;106589;1276;23217;-70
2023/06/01 09:36:40;;;;;;;5.30;4.20;;;;;;;24.01;47.96;95651.17;106572;1276;25293;-71
2023/06/01 09:39:14;;;;;;;7.10;4.50;;;;;;;24.19;48.71;95652.22;106546;1276;25308;-71
2023/06/01 09:41:53;;;;;;;4.80;3.90;;;;;;;24.40;49.27;95646.98;106569;1276;25475;-71
2023/06/01 09:44:22;;;;;;;5.70;4.40;;;;;;;24.55;46.75;95641.90;106717;1276;24254;-70
2023/06/01 09:46:53;;;;;;;5.90;3.90;;;;;;;24.67;48.36;95643.42;106587;1276;22529;-70
2023/06/01 09:49:28;;;;;;;6.80;4.30;;;;;;;24.83;48.98;95643.98;106633;1276;22648;-70
2023/06/01 09:52:05;;;;;;;6.70;4.20;;;;;;;25.06;48.74;95642.27;106637;1276;22524;-70
2023/06/01 09:54:36;;;;;;;4.30;3.90;;;;;;;25.16;47.28;95638.66;106550;1276;22635;-70
2023/06/01 09:57:06;;;;;;;5.80;3.90;;;;;;;25.20;46.40;95641.05;106605;1276;22543;-70
2023/06/01 09:59:45;;;;;;;4.90;4.10;;;;;;;25.21;46.35;95637.59;106585;1276;24253;-70
2023/06/01 10:02:15;;;;;;;11.10;4.80;;;;;;;25.20;46.50;95638.00;106608;1264;22647;-71
2023/06/01 10:04:52;;;;;;;6.10;4.40;;;;;;;25.21;44.14;95636.68;106636;1276;22511;-70
2023/06/01 10:07:22;;;;;;;4.20;3.80;;;;;;;25.35;46.42;95631.14;106584;1276;22653;-70
2023/06/01 10:09:55;;;;;;;7.10;3.80;;;;;;;25.53;44.89;95632.07;106574;1276;22527;-71
2023/06/01 10:12:24;;;;;;;5.30;3.90;;;;;;;25.55;44.80;95634.98;106595;1276;25471;-70
2023/06/01 10:14:52;;;;;;;5.40;3.80;;;;;;;25.78;44.68;95630.86;106558;1276;24196;-70
2023/06/01 10:17:21;;;;;;;6.80;4.40;;;;;;;25.96;43.00;95632.21;106591;1267;26666;-70
2023/06/01 10:19:49;;;;;;;6.70;4.40;;;;;;;25.74;42.95;95631.88;106657;1276;25351;-70
2023/06/01 10:22:17;;;;;;;6.30;3.90;;;;;;;25.75;41.59;95626.91;106601;1276;25390;-70
2023/06/01 10:24:46;;;;;;;7.30;4.10;;;;;;;25.91;42.40;95627.36;106604;1276;22646;-70
2023/06/01 10:27:42;;;;;;;5.70;4.10;;;;;;;26.09;41.79;95626.98;106421;1257;24244;-70
2023/06/01 10:30:12;;;;;;;5.50;4.00;;;;;;;26.08;41.06;95619.85;106692;1276;24373;-71
2023/06/01 10:32:42;;;;;;;6.50;4.30;;;;;;;25.81;41.06;95619.95;106644;1276;24224;-71
2023/06/01 10:35:33;;;;;;;6.70;4.70;;;;;;;25.43;42.46;95620.58;106657;1276;24374;-71
2023/06/01 10:38:22;;;;;;;4.50;4.00;;;;;;;25.16;43.38;95620.69;106515;1276;23899;-70
2023/06/01 10:40:50;;;;;;;7.30;4.20;;;;;;;24.98;44.35;95620.21;106555;1267;22739;-70
2023/06/01 10:43:40;;;;;;;6.40;4.40;;;;;;;24.92;42.42;95614.38;106568;1276;22605;-71
2023/06/01 10:46:40;;;;;;;7.20;4.30;;;;;;;24.55;43.26;95612.59;106607;1276;25306;-70
2023/06/01 10:49:12;;;;;;;8.20;4.80;;;;;;;24.23;45.00;95614.19;106589;1276;22778;-70
2023/06/01 10:51:40;;;;;;;8.30;4.50;;;;;;;23.95;46.17;95613.33;106609;1276;24447;-70
2023/06/01 10:54:26;;;;;;;5.40;4.60;;;;;;;23.77;46.67;95614.82;106618;1276;24372;-70
2023/06/01 10:57:22;;;;;;;4.90;4.00;;;;;;;23.65;46.37;95611.14;106619;1276;22519;-70
2023/06/01 11:00:22;;;;;;;5.90;4.40;;;;;;;23.63;46.27;95604.64;106862;1276;22547;-70
2023/06/01 11:02:58;;;;;;;7.80;4.80;;;;;;;23.75;43.86;95604.11;106860;1276;25210;-70
2023/06/01 11:05:40;;;;;;;8.60;4.80;;;;;;;24.12;44.37;95596.84;106601;1275;22515;-70
2023/06/01 11:08:28;;;;;;;6.90;5.10;;;;;;;24.77;43.61;95593.36;106737;1276;22636;-70
2023/06/01 11:10:59;;;;;;;6.90;4.60;;;;;;;25.08;42.01;95592.10;106623;1276;22636;-70
2023/06/01 11:13:39;;;;;;;5.30;4.30;;;;;;;25.18;40.41;95587.20;106573;1276;23912;-70
2023/06/01 11:16:09;;;;;;;6.50;4.50;;;;;;;25.14;40.21;95587.71;106613;1276;22640;-70
2023/06/01 11:18:44;;;;;;;7.40;4.30;;;;;;;24.95;40.00;95588.42;106608;1269;23361;-70
2023/06/01 11:21:18;;;;;;;7.30;4.50;;;;;;;24.83;41.62;95588.05;106605;1276;22658;-70
2023/06/01 11:23:48;;;;;;;6.40;4.30;;;;;;;24.72;43.60;95589.23;106551;1276;22586;-70
2023/06/01 11:26:19;;;;;;;6.60;4.40;;;;;;;24.54;44.15;95595.81;106855;1276;24201;-70
2023/06/01 11:28:48;;;;;;;4.80;3.60;;;;;;;24.31;44.15;95601.91;106596;1276;25396;-71
2023/06/01 11:31:19;;;;;;;4.80;3.50;;;;;;;23.72;45.32;95607.23;106571;1276;22513;-70
2023/06/01 11:33:52;;;;;;;8.30;3.60;;;;;;;23.07;46.81;95609.36;106587;1276;22536;-70
2023/06/01 11:36:24;;;;;;;5.50;3.70;;;;;;;22.31;49.20;95610.77;106584;1276;22629;-69
2023/06/01 11:38:55;;;;;;;5.60;3.40;;;;;;;21.69;51.17;95618.42;106583;1276;22525;-70
2023/06/01 11:41:23;;;;;;;5.30;3.40;;;;;;;21.14;52.57;95624.09;106571;1276;25472;-69
2023/06/01 11:43:56;;;;;;;3.80;3.30;;;;;;;20.77;53.05;95629.64;106561;1276;22530;-69